sensor_id;sensor_type;location;lat;lon;timestamp;temperature;humidity
18287;DHT22;9269;50.838;12.094;2023-02-26T00:00:16;3.40;45.50
18287;DHT22;9269;50.838;12.094;2023-02-26T00:02:47;3.60;46.00
18287;DHT22;9269;50.838;12.094;2023-02-26T00:05:17;3.60;46.20
18287;DHT22;9269;50.838;12.094;2023-02-26T00:07:46;3.40;45.70
18287;DHT22;9269;50.838;12.094;2023-02-26T00:10:14;3.50;45.70
18287;DHT22;9269;50.838;12.094;2023-02-26T00:12:44;3.50;45.80
18287;DHT22;9269;50.838;12.094;2023-02-26T00:15:14;3.40;46.00
18287;DHT22;9269;50.838;12.094;2023-02-26T00:17:50;3.60;45.90
18287;DHT22;9269;50.838;12.094;2023-02-26T00:20:25;3.60;45.90
18287;DHT22;9269;50.838;12.094;2023-02-26T00:22:54;3.60;45.80
18287;DHT22;9269;50.838;12.094;2023-02-26T00:25:23;3.70;45.60
18287;DHT22;9269;50.838;12.094;2023-02-26T00:27:52;3.60;46.00
18287;DHT22;9269;50.838;12.094;2023-02-26T00:30:21;3.50;46.50
18287;DHT22;9269;50.838;12.094;2023-02-26T00:32:50;3.80;46.00
18287;DHT22;9269;50.838;12.094;2023-02-26T00:35:19;3.60;46.40
18287;DHT22;9269;50.838;12.094;2023-02-26T00:37:57;3.60;46.30
18287;DHT22;9269;50.838;12.094;2023-02-26T00:40:40;3.60;46.20
18287;DHT22;9269;50.838;12.094;2023-02-26T00:43:15;3.70;46.20
18287;DHT22;9269;50.838;12.094;2023-02-26T00:45:47;3.80;46.20
18287;DHT22;9269;50.838;12.094;2023-02-26T00:48:30;3.70;46.30
18287;DHT22;9269;50.838;12.094;2023-02-26T00:51:04;3.70;46.40
18287;DHT22;9269;50.838;12.094;2023-02-26T00:53:42;3.70;46.50
18287;DHT22;9269;50.838;12.094;2023-02-26T00:56:13;3.70;46.70
18287;DHT22;9269;50.838;12.094;2023-02-26T00:58:41;3.60;46.20
18287;DHT22;9269;50.838;12.094;2023-02-26T01:01:09;3.70;46.50
18287;DHT22;9269;50.838;12.094;2023-02-26T01:03:38;3.80;46.30
18287;DHT22;9269;50.838;12.094;2023-02-26T01:06:10;3.60;46.40
18287;DHT22;9269;50.838;12.094;2023-02-26T01:08:45;3.50;46.20
18287;DHT22;9269;50.838;12.094;2023-02-26T01:11:15;3.60;46.90
18287;DHT22;9269;50.838;12.094;2023-02-26T01:13:44;3.50;46.60
18287;DHT22;9269;50.838;12.094;2023-02-26T01:16:18;3.50;47.00
18287;DHT22;9269;50.838;12.094;2023-02-26T01:18:53;3.50;47.00
18287;DHT22;9269;50.838;12.094;2023-02-26T01:21:30;3.60;47.10
18287;DHT22;9269;50.838;12.094;2023-02-26T01:24:04;3.60;46.90
18287;DHT22;9269;50.838;12.094;2023-02-26T01:26:33;3.60;47.10
18287;DHT22;9269;50.838;12.094;2023-02-26T01:29:01;3.70;47.00
18287;DHT22;9269;50.838;12.094;2023-02-26T01:31:38;3.60;47.00
18287;DHT22;9269;50.838;12.094;2023-02-26T01:34:13;3.70;47.00
18287;DHT22;9269;50.838;12.094;2023-02-26T01:36:45;3.70;47.00
18287;DHT22;9269;50.838;12.094;2023-02-26T01:39:24;3.70;47.30
18287;DHT22;9269;50.838;12.094;2023-02-26T01:41:59;3.70;47.10
18287;DHT22;9269;50.838;12.094;2023-02-26T01:44:35;3.80;47.30
18287;DHT22;9269;50.838;12.094;2023-02-26T01:47:15;3.70;47.40
18287;DHT22;9269;50.838;12.094;2023-02-26T01:49:44;3.40;47.30
18287;DHT22;9269;50.838;12.094;2023-02-26T01:55:31;3.60;47.60
18287;DHT22;9269;50.838;12.094;2023-02-26T01:57:59;3.60;47.60
18287;DHT22;9269;50.838;12.094;2023-02-26T02:00:29;3.60;47.60
18287;DHT22;9269;50.838;12.094;2023-02-26T02:02:58;3.70;47.60
18287;DHT22;9269;50.838;12.094;2023-02-26T02:05:31;3.50;48.00
18287;DHT22;9269;50.838;12.094;2023-02-26T02:08:00;3.70;48.20
18287;DHT22;9269;50.838;12.094;2023-02-26T02:10:30;3.80;47.80
18287;DHT22;9269;50.838;12.094;2023-02-26T02:13:04;3.70;47.90
18287;DHT22;9269;50.838;12.094;2023-02-26T02:15:41;3.60;47.90
18287;DHT22;9269;50.838;12.094;2023-02-26T02:18:17;3.80;47.80
18287;DHT22;9269;50.838;12.094;2023-02-26T02:23:49;3.60;48.00
18287;DHT22;9269;50.838;12.094;2023-02-26T02:26:39;3.60;47.70
18287;DHT22;9269;50.838;12.094;2023-02-26T02:32:28;3.70;47.80
18287;DHT22;9269;50.838;12.094;2023-02-26T02:35:06;3.70;48.00
18287;DHT22;9269;50.838;12.094;2023-02-26T02:37:39;3.40;48.30
18287;DHT22;9269;50.838;12.094;2023-02-26T02:40:12;3.40;48.40
18287;DHT22;9269;50.838;12.094;2023-02-26T02:42:45;3.50;48.20
18287;DHT22;9269;50.838;12.094;2023-02-26T02:45:18;3.40;48.20
18287;DHT22;9269;50.838;12.094;2023-02-26T02:47:52;3.60;48.10
18287;DHT22;9269;50.838;12.094;2023-02-26T02:50:26;3.50;48.60
18287;DHT22;9269;50.838;12.094;2023-02-26T02:53:00;3.70;48.50
18287;DHT22;9269;50.838;12.094;2023-02-26T02:55:31;3.60;48.40
18287;DHT22;9269;50.838;12.094;2023-02-26T02:58:03;3.50;48.30
18287;DHT22;9269;50.838;12.094;2023-02-26T03:00:35;3.50;48.50
18287;DHT22;9269;50.838;12.094;2023-02-26T03:03:12;3.50;48.40
18287;DHT22;9269;50.838;12.094;2023-02-26T03:05:43;3.40;48.60
18287;DHT22;9269;50.838;12.094;2023-02-26T03:08:14;3.40;48.70
18287;DHT22;9269;50.838;12.094;2023-02-26T03:10:42;3.60;48.60
18287;DHT22;9269;50.838;12.094;2023-02-26T03:13:15;3.50;48.50
18287;DHT22;9269;50.838;12.094;2023-02-26T03:15:54;3.50;48.40
18287;DHT22;9269;50.838;12.094;2023-02-26T03:18:37;3.40;48.40
18287;DHT22;9269;50.838;12.094;2023-02-26T03:21:12;3.50;48.60
18287;DHT22;9269;50.838;12.094;2023-02-26T03:23:45;3.50;48.40
18287;DHT22;9269;50.838;12.094;2023-02-26T03:26:22;3.20;48.50
18287;DHT22;9269;50.838;12.094;2023-02-26T03:28:55;3.50;48.60
18287;DHT22;9269;50.838;12.094;2023-02-26T03:31:28;3.30;48.50
18287;DHT22;9269;50.838;12.094;2023-02-26T03:34:02;3.40;48.80
18287;DHT22;9269;50.838;12.094;2023-02-26T03:36:36;3.50;48.70
18287;DHT22;9269;50.838;12.094;2023-02-26T03:39:10;3.40;48.80
18287;DHT22;9269;50.838;12.094;2023-02-26T03:41:43;3.40;48.90
18287;DHT22;9269;50.838;12.094;2023-02-26T03:44:15;3.30;49.00
18287;DHT22;9269;50.838;12.094;2023-02-26T03:46:51;3.20;48.90
18287;DHT22;9269;50.838;12.094;2023-02-26T03:49:25;3.10;48.80
18287;DHT22;9269;50.838;12.094;2023-02-26T03:51:58;3.30;48.90
18287;DHT22;9269;50.838;12.094;2023-02-26T03:54:30;3.40;48.90
18287;DHT22;9269;50.838;12.094;2023-02-26T03:57:00;3.20;48.80
18287;DHT22;9269;50.838;12.094;2023-02-26T03:59:28;3.30;49.00
18287;DHT22;9269;50.838;12.094;2023-02-26T04:01:59;3.20;48.90
18287;DHT22;9269;50.838;12.094;2023-02-26T04:04:33;3.20;49.30
18287;DHT22;9269;50.838;12.094;2023-02-26T04:07:02;3.20;49.10
18287;DHT22;9269;50.838;12.094;2023-02-26T04:09:31;3.10;49.30
18287;DHT22;9269;50.838;12.094;2023-02-26T04:11:59;3.10;48.80
18287;DHT22;9269;50.838;12.094;2023-02-26T04:14:27;3.20;49.20
18287;DHT22;9269;50.838;12.094;2023-02-26T04:16:56;3.10;49.20
18287;DHT22;9269;50.838;12.094;2023-02-26T04:19:24;3.10;49.60
18287;DHT22;9269;50.838;12.094;2023-02-26T04:21:54;2.90;49.30
18287;DHT22;9269;50.838;12.094;2023-02-26T04:24:23;3.40;49.50
18287;DHT22;9269;50.838;12.094;2023-02-26T04:26:51;3.10;49.60
18287;DHT22;9269;50.838;12.094;2023-02-26T04:29:19;3.20;49.60
18287;DHT22;9269;50.838;12.094;2023-02-26T04:31:49;3.00;49.20
18287;DHT22;9269;50.838;12.094;2023-02-26T04:34:17;3.20;49.40
18287;DHT22;9269;50.838;12.094;2023-02-26T04:36:45;3.10;49.70
18287;DHT22;9269;50.838;12.094;2023-02-26T04:39:15;3.10;49.50
18287;DHT22;9269;50.838;12.094;2023-02-26T04:41:44;3.10;49.60
18287;DHT22;9269;50.838;12.094;2023-02-26T04:44:12;3.10;49.60
18287;DHT22;9269;50.838;12.094;2023-02-26T04:46:40;3.10;49.50
18287;DHT22;9269;50.838;12.094;2023-02-26T04:49:09;3.20;49.50
18287;DHT22;9269;50.838;12.094;2023-02-26T04:51:37;3.00;49.50
18287;DHT22;9269;50.838;12.094;2023-02-26T04:54:06;2.90;49.60
18287;DHT22;9269;50.838;12.094;2023-02-26T04:56:35;3.00;49.70
18287;DHT22;9269;50.838;12.094;2023-02-26T04:59:04;3.00;49.90
18287;DHT22;9269;50.838;12.094;2023-02-26T05:01:32;3.10;49.80
18287;DHT22;9269;50.838;12.094;2023-02-26T05:04:01;3.10;49.70
18287;DHT22;9269;50.838;12.094;2023-02-26T05:06:29;3.10;49.70
18287;DHT22;9269;50.838;12.094;2023-02-26T05:08:58;3.00;49.90
18287;DHT22;9269;50.838;12.094;2023-02-26T05:11:26;2.90;50.10
18287;DHT22;9269;50.838;12.094;2023-02-26T05:13:55;3.00;50.00
18287;DHT22;9269;50.838;12.094;2023-02-26T05:16:24;3.00;49.90
18287;DHT22;9269;50.838;12.094;2023-02-26T05:18:54;2.90;49.80
18287;DHT22;9269;50.838;12.094;2023-02-26T05:21:22;3.10;50.10
18287;DHT22;9269;50.838;12.094;2023-02-26T05:23:52;3.00;50.00
18287;DHT22;9269;50.838;12.094;2023-02-26T05:26:20;2.80;49.90
18287;DHT22;9269;50.838;12.094;2023-02-26T05:28:49;3.00;50.00
18287;DHT22;9269;50.838;12.094;2023-02-26T05:31:20;2.90;50.00
18287;DHT22;9269;50.838;12.094;2023-02-26T05:33:48;2.80;50.00
18287;DHT22;9269;50.838;12.094;2023-02-26T05:36:16;3.00;50.30
18287;DHT22;9269;50.838;12.094;2023-02-26T05:38:45;3.00;50.20
18287;DHT22;9269;50.838;12.094;2023-02-26T05:41:13;3.00;50.00
18287;DHT22;9269;50.838;12.094;2023-02-26T05:43:41;2.90;49.90
18287;DHT22;9269;50.838;12.094;2023-02-26T05:46:10;2.90;50.30
18287;DHT22;9269;50.838;12.094;2023-02-26T05:48:40;2.80;50.40
18287;DHT22;9269;50.838;12.094;2023-02-26T05:51:11;2.80;50.10
18287;DHT22;9269;50.838;12.094;2023-02-26T05:53:40;2.80;50.70
18287;DHT22;9269;50.838;12.094;2023-02-26T05:56:08;2.80;50.30
18287;DHT22;9269;50.838;12.094;2023-02-26T05:58:36;3.00;50.60
18287;DHT22;9269;50.838;12.094;2023-02-26T06:01:05;2.80;50.50
18287;DHT22;9269;50.838;12.094;2023-02-26T06:03:33;3.00;50.20
18287;DHT22;9269;50.838;12.094;2023-02-26T06:06:03;2.90;50.10
18287;DHT22;9269;50.838;12.094;2023-02-26T06:08:31;2.80;50.80
18287;DHT22;9269;50.838;12.094;2023-02-26T06:11:00;3.00;50.30
18287;DHT22;9269;50.838;12.094;2023-02-26T06:13:28;2.80;50.60
18287;DHT22;9269;50.838;12.094;2023-02-26T06:15:57;2.90;50.10
18287;DHT22;9269;50.838;12.094;2023-02-26T06:18:25;2.80;50.20
18287;DHT22;9269;50.838;12.094;2023-02-26T06:20:54;2.80;50.50
18287;DHT22;9269;50.838;12.094;2023-02-26T06:23:23;2.90;50.50
18287;DHT22;9269;50.838;12.094;2023-02-26T06:25:52;2.80;50.70
18287;DHT22;9269;50.838;12.094;2023-02-26T06:28:20;2.80;50.30
18287;DHT22;9269;50.838;12.094;2023-02-26T06:30:51;2.80;50.60
18287;DHT22;9269;50.838;12.094;2023-02-26T06:33:20;2.80;50.60
18287;DHT22;9269;50.838;12.094;2023-02-26T06:35:48;2.80;50.70
18287;DHT22;9269;50.838;12.094;2023-02-26T06:38:17;2.90;50.60
18287;DHT22;9269;50.838;12.094;2023-02-26T06:40:47;2.90;50.70
18287;DHT22;9269;50.838;12.094;2023-02-26T06:43:16;2.70;50.90
18287;DHT22;9269;50.838;12.094;2023-02-26T06:45:45;2.80;50.80
18287;DHT22;9269;50.838;12.094;2023-02-26T06:48:13;2.70;50.70
18287;DHT22;9269;50.838;12.094;2023-02-26T06:50:42;3.00;51.00
18287;DHT22;9269;50.838;12.094;2023-02-26T06:53:10;2.80;50.70
18287;DHT22;9269;50.838;12.094;2023-02-26T06:55:42;2.80;50.90
18287;DHT22;9269;50.838;12.094;2023-02-26T06:58:13;2.80;51.20
18287;DHT22;9269;50.838;12.094;2023-02-26T07:00:41;2.70;50.90
18287;DHT22;9269;50.838;12.094;2023-02-26T07:03:11;2.80;50.70
18287;DHT22;9269;50.838;12.094;2023-02-26T07:05:40;2.80;51.00
18287;DHT22;9269;50.838;12.094;2023-02-26T07:08:08;2.70;51.10
18287;DHT22;9269;50.838;12.094;2023-02-26T07:10:37;2.90;50.80
18287;DHT22;9269;50.838;12.094;2023-02-26T07:13:05;3.00;50.90
18287;DHT22;9269;50.838;12.094;2023-02-26T07:15:35;2.70;50.90
18287;DHT22;9269;50.838;12.094;2023-02-26T07:18:04;2.80;51.10
18287;DHT22;9269;50.838;12.094;2023-02-26T07:20:32;2.80;51.30
18287;DHT22;9269;50.838;12.094;2023-02-26T07:23:00;2.70;51.30
18287;DHT22;9269;50.838;12.094;2023-02-26T07:25:29;2.90;51.00
18287;DHT22;9269;50.838;12.094;2023-02-26T07:27:57;2.90;51.10
18287;DHT22;9269;50.838;12.094;2023-02-26T07:30:26;2.80;51.00
18287;DHT22;9269;50.838;12.094;2023-02-26T07:32:56;2.90;51.40
18287;DHT22;9269;50.838;12.094;2023-02-26T07:35:25;2.90;51.10
18287;DHT22;9269;50.838;12.094;2023-02-26T07:37:53;2.80;51.00
18287;DHT22;9269;50.838;12.094;2023-02-26T07:40:22;3.00;51.00
18287;DHT22;9269;50.838;12.094;2023-02-26T07:42:50;2.90;51.10
18287;DHT22;9269;50.838;12.094;2023-02-26T07:45:18;3.00;51.10
18287;DHT22;9269;50.838;12.094;2023-02-26T07:47:49;2.90;51.10
18287;DHT22;9269;50.838;12.094;2023-02-26T07:50:20;2.90;51.20
18287;DHT22;9269;50.838;12.094;2023-02-26T07:52:51;3.00;51.50
18287;DHT22;9269;50.838;12.094;2023-02-26T07:55:20;2.90;51.40
18287;DHT22;9269;50.838;12.094;2023-02-26T07:57:49;2.90;51.30
18287;DHT22;9269;50.838;12.094;2023-02-26T08:00:18;3.00;51.40
18287;DHT22;9269;50.838;12.094;2023-02-26T08:02:47;2.80;51.30
18287;DHT22;9269;50.838;12.094;2023-02-26T08:05:15;2.90;51.20
18287;DHT22;9269;50.838;12.094;2023-02-26T08:07:45;3.00;51.40
18287;DHT22;9269;50.838;12.094;2023-02-26T08:10:13;3.00;51.60
18287;DHT22;9269;50.838;12.094;2023-02-26T08:12:41;3.10;51.20
18287;DHT22;9269;50.838;12.094;2023-02-26T08:15:10;3.00;51.30
18287;DHT22;9269;50.838;12.094;2023-02-26T08:17:40;3.10;51.40
18287;DHT22;9269;50.838;12.094;2023-02-26T08:20:10;2.80;51.40
18287;DHT22;9269;50.838;12.094;2023-02-26T08:22:41;3.10;51.60
18287;DHT22;9269;50.838;12.094;2023-02-26T08:25:11;2.90;51.50
18287;DHT22;9269;50.838;12.094;2023-02-26T08:27:45;3.10;51.80
18287;DHT22;9269;50.838;12.094;2023-02-26T08:30:14;3.10;51.70
18287;DHT22;9269;50.838;12.094;2023-02-26T08:32:45;3.10;51.50
18287;DHT22;9269;50.838;12.094;2023-02-26T08:35:16;3.10;51.50
18287;DHT22;9269;50.838;12.094;2023-02-26T08:37:44;3.10;51.60
18287;DHT22;9269;50.838;12.094;2023-02-26T08:40:15;3.30;51.40
18287;DHT22;9269;50.838;12.094;2023-02-26T08:42:44;3.30;51.40
18287;DHT22;9269;50.838;12.094;2023-02-26T08:45:13;3.10;51.30
18287;DHT22;9269;50.838;12.094;2023-02-26T08:47:42;3.30;51.40
18287;DHT22;9269;50.838;12.094;2023-02-26T08:50:23;3.40;51.20
18287;DHT22;9269;50.838;12.094;2023-02-26T08:52:54;3.20;51.20
18287;DHT22;9269;50.838;12.094;2023-02-26T08:55:24;3.20;51.30
18287;DHT22;9269;50.838;12.094;2023-02-26T08:57:53;3.10;51.10
18287;DHT22;9269;50.838;12.094;2023-02-26T09:00:22;3.20;51.10
18287;DHT22;9269;50.838;12.094;2023-02-26T09:02:50;3.30;50.90
18287;DHT22;9269;50.838;12.094;2023-02-26T09:05:19;3.10;50.70
18287;DHT22;9269;50.838;12.094;2023-02-26T09:07:48;3.10;50.50
18287;DHT22;9269;50.838;12.094;2023-02-26T09:10:17;3.10;50.30
18287;DHT22;9269;50.838;12.094;2023-02-26T09:12:47;3.20;50.60
18287;DHT22;9269;50.838;12.094;2023-02-26T09:15:16;3.40;50.60
18287;DHT22;9269;50.838;12.094;2023-02-26T09:17:46;3.40;50.70
18287;DHT22;9269;50.838;12.094;2023-02-26T09:20:15;3.40;50.70
18287;DHT22;9269;50.838;12.094;2023-02-26T09:22:44;3.30;50.70
18287;DHT22;9269;50.838;12.094;2023-02-26T09:25:13;3.30;50.40
18287;DHT22;9269;50.838;12.094;2023-02-26T09:27:42;3.20;50.30
18287;DHT22;9269;50.838;12.094;2023-02-26T09:30:13;3.10;50.30
18287;DHT22;9269;50.838;12.094;2023-02-26T09:32:43;3.30;50.00
18287;DHT22;9269;50.838;12.094;2023-02-26T09:35:13;3.20;50.40
18287;DHT22;9269;50.838;12.094;2023-02-26T09:37:42;3.30;50.00
18287;DHT22;9269;50.838;12.094;2023-02-26T09:40:20;3.30;49.80
18287;DHT22;9269;50.838;12.094;2023-02-26T09:43:02;3.20;49.60
18287;DHT22;9269;50.838;12.094;2023-02-26T09:45:37;3.30;49.70
18287;DHT22;9269;50.838;12.094;2023-02-26T09:48:12;3.30;50.00
18287;DHT22;9269;50.838;12.094;2023-02-26T09:50:45;3.50;50.20
18287;DHT22;9269;50.838;12.094;2023-02-26T09:53:17;3.40;50.00
18287;DHT22;9269;50.838;12.094;2023-02-26T09:55:48;3.40;49.70
18287;DHT22;9269;50.838;12.094;2023-02-26T09:58:21;3.50;49.60
18287;DHT22;9269;50.838;12.094;2023-02-26T10:01:00;3.50;49.40
18287;DHT22;9269;50.838;12.094;2023-02-26T10:03:35;3.70;49.70
18287;DHT22;9269;50.838;12.094;2023-02-26T10:06:17;3.50;49.50
18287;DHT22;9269;50.838;12.094;2023-02-26T10:09:03;3.50;49.20
18287;DHT22;9269;50.838;12.094;2023-02-26T10:11:39;3.70;49.00
18287;DHT22;9269;50.838;12.094;2023-02-26T10:14:15;3.60;49.10
18287;DHT22;9269;50.838;12.094;2023-02-26T10:16:51;3.50;49.00
18287;DHT22;9269;50.838;12.094;2023-02-26T10:19:26;3.60;48.60
18287;DHT22;9269;50.838;12.094;2023-02-26T10:21:57;3.40;49.10
18287;DHT22;9269;50.838;12.094;2023-02-26T10:24:35;3.50;48.80
18287;DHT22;9269;50.838;12.094;2023-02-26T10:27:06;3.60;48.60
18287;DHT22;9269;50.838;12.094;2023-02-26T10:29:39;3.50;48.60
18287;DHT22;9269;50.838;12.094;2023-02-26T10:32:22;3.70;48.50
18287;DHT22;9269;50.838;12.094;2023-02-26T10:34:55;3.50;48.80
18287;DHT22;9269;50.838;12.094;2023-02-26T10:37:35;3.40;48.60
18287;DHT22;9269;50.838;12.094;2023-02-26T10:40:11;3.40;48.90
18287;DHT22;9269;50.838;12.094;2023-02-26T10:42:43;3.70;48.50
18287;DHT22;9269;50.838;12.094;2023-02-26T10:45:24;3.60;48.60
18287;DHT22;9269;50.838;12.094;2023-02-26T10:48:05;3.80;48.50
18287;DHT22;9269;50.838;12.094;2023-02-26T10:50:34;3.60;48.60
18287;DHT22;9269;50.838;12.094;2023-02-26T10:53:04;3.80;48.30
18287;DHT22;9269;50.838;12.094;2023-02-26T10:55:37;3.50;48.40
18287;DHT22;9269;50.838;12.094;2023-02-26T10:58:11;3.80;48.00
18287;DHT22;9269;50.838;12.094;2023-02-26T11:00:42;3.70;48.30
18287;DHT22;9269;50.838;12.094;2023-02-26T11:03:15;3.70;47.80
18287;DHT22;9269;50.838;12.094;2023-02-26T11:05:46;3.80;47.80
18287;DHT22;9269;50.838;12.094;2023-02-26T11:08:17;3.70;47.60
18287;DHT22;9269;50.838;12.094;2023-02-26T11:10:50;3.50;47.90
18287;DHT22;9269;50.838;12.094;2023-02-26T11:13:20;3.80;47.70
18287;DHT22;9269;50.838;12.094;2023-02-26T11:15:51;3.80;47.80
18287;DHT22;9269;50.838;12.094;2023-02-26T11:18:25;3.60;47.50
18287;DHT22;9269;50.838;12.094;2023-02-26T11:20:55;3.80;47.60
18287;DHT22;9269;50.838;12.094;2023-02-26T11:23:26;3.90;47.40
18287;DHT22;9269;50.838;12.094;2023-02-26T11:25:59;3.90;47.20
18287;DHT22;9269;50.838;12.094;2023-02-26T11:28:31;3.80;47.40
18287;DHT22;9269;50.838;12.094;2023-02-26T11:31:05;3.80;47.00
18287;DHT22;9269;50.838;12.094;2023-02-26T11:33:37;3.80;46.80
18287;DHT22;9269;50.838;12.094;2023-02-26T11:36:09;4.00;46.90
18287;DHT22;9269;50.838;12.094;2023-02-26T11:38:38;4.10;46.70
18287;DHT22;9269;50.838;12.094;2023-02-26T11:41:08;3.90;46.50
18287;DHT22;9269;50.838;12.094;2023-02-26T11:43:42;3.90;46.80
18287;DHT22;9269;50.838;12.094;2023-02-26T11:46:11;4.00;47.00
18287;DHT22;9269;50.838;12.094;2023-02-26T11:48:44;3.90;46.50
18287;DHT22;9269;50.838;12.094;2023-02-26T11:51:15;4.10;46.80
18287;DHT22;9269;50.838;12.094;2023-02-26T11:53:49;4.10;46.60
18287;DHT22;9269;50.838;12.094;2023-02-26T11:56:25;4.00;46.20
18287;DHT22;9269;50.838;12.094;2023-02-26T11:58:54;4.00;46.30
18287;DHT22;9269;50.838;12.094;2023-02-26T12:01:27;4.10;46.50
18287;DHT22;9269;50.838;12.094;2023-02-26T12:04:02;4.20;46.10
18287;DHT22;9269;50.838;12.094;2023-02-26T12:06:32;4.10;46.00
18287;DHT22;9269;50.838;12.094;2023-02-26T12:09:08;4.10;46.20
18287;DHT22;9269;50.838;12.094;2023-02-26T12:11:56;4.10;45.90
18287;DHT22;9269;50.838;12.094;2023-02-26T12:14:53;4.20;45.60
18287;DHT22;9269;50.838;12.094;2023-02-26T12:17:38;4.20;45.30
18287;DHT22;9269;50.838;12.094;2023-02-26T12:20:18;4.10;45.40
18287;DHT22;9269;50.838;12.094;2023-02-26T12:22:50;4.30;45.30
18287;DHT22;9269;50.838;12.094;2023-02-26T12:28:49;4.10;45.10
18287;DHT22;9269;50.838;12.094;2023-02-26T12:31:36;4.10;44.90
18287;DHT22;9269;50.838;12.094;2023-02-26T12:34:26;4.00;44.70
18287;DHT22;9269;50.838;12.094;2023-02-26T12:37:24;4.20;44.40
18287;DHT22;9269;50.838;12.094;2023-02-26T12:40:21;4.20;43.90
18287;DHT22;9269;50.838;12.094;2023-02-26T12:43:03;4.20;44.00
18287;DHT22;9269;50.838;12.094;2023-02-26T12:45:43;4.20;43.80
18287;DHT22;9269;50.838;12.094;2023-02-26T12:48:32;4.20;43.70
18287;DHT22;9269;50.838;12.094;2023-02-26T12:51:10;4.40;43.80
18287;DHT22;9269;50.838;12.094;2023-02-26T12:54:12;4.10;43.70
18287;DHT22;9269;50.838;12.094;2023-02-26T12:57:04;4.30;43.70
18287;DHT22;9269;50.838;12.094;2023-02-26T12:59:55;4.30;43.60
18287;DHT22;9269;50.838;12.094;2023-02-26T13:02:49;4.30;43.60
18287;DHT22;9269;50.838;12.094;2023-02-26T13:05:29;4.20;43.50
18287;DHT22;9269;50.838;12.094;2023-02-26T13:08:11;4.20;43.80
18287;DHT22;9269;50.838;12.094;2023-02-26T13:10:53;4.20;43.50
18287;DHT22;9269;50.838;12.094;2023-02-26T13:13:56;4.40;42.90
18287;DHT22;9269;50.838;12.094;2023-02-26T13:16:37;4.20;42.80
18287;DHT22;9269;50.838;12.094;2023-02-26T13:19:16;4.00;42.40
18287;DHT22;9269;50.838;12.094;2023-02-26T13:21:52;4.20;42.50
18287;DHT22;9269;50.838;12.094;2023-02-26T13:24:26;4.10;42.80
18287;DHT22;9269;50.838;12.094;2023-02-26T13:26:59;4.20;42.00
18287;DHT22;9269;50.838;12.094;2023-02-26T13:29:33;4.30;42.10
18287;DHT22;9269;50.838;12.094;2023-02-26T13:32:07;4.40;41.50
18287;DHT22;9269;50.838;12.094;2023-02-26T13:34:41;3.90;41.40
18287;DHT22;9269;50.838;12.094;2023-02-26T13:37:20;4.00;41.40
18287;DHT22;9269;50.838;12.094;2023-02-26T13:40:00;4.00;41.00
18287;DHT22;9269;50.838;12.094;2023-02-26T13:42:39;4.10;41.00
18287;DHT22;9269;50.838;12.094;2023-02-26T13:45:40;4.30;40.90
18287;DHT22;9269;50.838;12.094;2023-02-26T13:48:18;4.20;40.80
18287;DHT22;9269;50.838;12.094;2023-02-26T13:50:56;4.10;41.00
18287;DHT22;9269;50.838;12.094;2023-02-26T13:53:51;4.20;40.80
18287;DHT22;9269;50.838;12.094;2023-02-26T13:59:30;4.30;40.80
18287;DHT22;9269;50.838;12.094;2023-02-26T14:02:00;4.20;40.50
18287;DHT22;9269;50.838;12.094;2023-02-26T14:04:31;4.20;41.00
18287;DHT22;9269;50.838;12.094;2023-02-26T14:07:09;4.30;40.90
18287;DHT22;9269;50.838;12.094;2023-02-26T14:09:46;4.30;40.70
18287;DHT22;9269;50.838;12.094;2023-02-26T14:12:33;4.20;40.30
18287;DHT22;9269;50.838;12.094;2023-02-26T14:15:30;4.10;39.70
18287;DHT22;9269;50.838;12.094;2023-02-26T14:21:42;4.30;39.80
18287;DHT22;9269;50.838;12.094;2023-02-26T14:24:18;4.10;40.00
18287;DHT22;9269;50.838;12.094;2023-02-26T14:26:49;4.10;40.40
18287;DHT22;9269;50.838;12.094;2023-02-26T14:29:24;4.10;40.40
18287;DHT22;9269;50.838;12.094;2023-02-26T14:32:14;4.20;40.80
18287;DHT22;9269;50.838;12.094;2023-02-26T14:34:48;4.20;40.90
18287;DHT22;9269;50.838;12.094;2023-02-26T14:37:21;4.20;40.80
18287;DHT22;9269;50.838;12.094;2023-02-26T14:39:54;4.10;41.00
18287;DHT22;9269;50.838;12.094;2023-02-26T14:42:32;4.10;40.80
18287;DHT22;9269;50.838;12.094;2023-02-26T14:45:08;4.10;41.10
18287;DHT22;9269;50.838;12.094;2023-02-26T14:47:39;4.20;41.10
18287;DHT22;9269;50.838;12.094;2023-02-26T14:50:10;4.10;40.90
18287;DHT22;9269;50.838;12.094;2023-02-26T14:56:04;4.30;40.90
18287;DHT22;9269;50.838;12.094;2023-02-26T14:58:46;4.20;40.80
18287;DHT22;9269;50.838;12.094;2023-02-26T15:01:31;4.10;41.40
18287;DHT22;9269;50.838;12.094;2023-02-26T15:04:13;4.10;41.30
18287;DHT22;9269;50.838;12.094;2023-02-26T15:06:53;4.10;41.20
18287;DHT22;9269;50.838;12.094;2023-02-26T15:09:33;4.10;41.70
18287;DHT22;9269;50.838;12.094;2023-02-26T15:12:27;4.10;41.20
18287;DHT22;9269;50.838;12.094;2023-02-26T15:15:21;4.20;41.40
18287;DHT22;9269;50.838;12.094;2023-02-26T15:18:00;4.10;41.50
18287;DHT22;9269;50.838;12.094;2023-02-26T15:20:43;4.30;41.60
18287;DHT22;9269;50.838;12.094;2023-02-26T15:23:26;4.20;41.60
18287;DHT22;9269;50.838;12.094;2023-02-26T15:25:58;4.30;41.80
18287;DHT22;9269;50.838;12.094;2023-02-26T15:28:31;4.20;42.00
18287;DHT22;9269;50.838;12.094;2023-02-26T15:31:03;4.10;41.80
18287;DHT22;9269;50.838;12.094;2023-02-26T15:33:34;4.20;42.00
18287;DHT22;9269;50.838;12.094;2023-02-26T15:36:08;4.00;42.20
18287;DHT22;9269;50.838;12.094;2023-02-26T15:38:41;4.10;42.10
18287;DHT22;9269;50.838;12.094;2023-02-26T15:41:10;4.20;42.40
18287;DHT22;9269;50.838;12.094;2023-02-26T15:43:48;4.10;41.90
18287;DHT22;9269;50.838;12.094;2023-02-26T15:46:18;4.10;42.60
18287;DHT22;9269;50.838;12.094;2023-02-26T15:48:48;4.10;42.50
18287;DHT22;9269;50.838;12.094;2023-02-26T15:51:18;4.30;42.80
18287;DHT22;9269;50.838;12.094;2023-02-26T15:53:49;4.30;43.40
18287;DHT22;9269;50.838;12.094;2023-02-26T15:56:22;4.10;43.70
18287;DHT22;9269;50.838;12.094;2023-02-26T15:58:54;4.20;43.90
18287;DHT22;9269;50.838;12.094;2023-02-26T16:01:28;4.30;43.80
18287;DHT22;9269;50.838;12.094;2023-02-26T16:03:59;4.30;43.60
18287;DHT22;9269;50.838;12.094;2023-02-26T16:06:31;4.20;43.80
18287;DHT22;9269;50.838;12.094;2023-02-26T16:09:05;3.90;43.70
18287;DHT22;9269;50.838;12.094;2023-02-26T16:11:35;4.20;43.60
18287;DHT22;9269;50.838;12.094;2023-02-26T16:14:06;4.20;43.40
18287;DHT22;9269;50.838;12.094;2023-02-26T16:16:40;4.20;43.60
18287;DHT22;9269;50.838;12.094;2023-02-26T16:19:12;4.10;43.60
18287;DHT22;9269;50.838;12.094;2023-02-26T16:21:44;4.20;43.50
18287;DHT22;9269;50.838;12.094;2023-02-26T16:24:15;4.20;43.50
18287;DHT22;9269;50.838;12.094;2023-02-26T16:26:48;3.90;44.00
18287;DHT22;9269;50.838;12.094;2023-02-26T16:29:20;4.10;44.20
18287;DHT22;9269;50.838;12.094;2023-02-26T16:31:52;4.10;44.90
18287;DHT22;9269;50.838;12.094;2023-02-26T16:34:28;4.00;44.70
18287;DHT22;9269;50.838;12.094;2023-02-26T16:37:09;4.20;45.20
18287;DHT22;9269;50.838;12.094;2023-02-26T16:39:43;4.00;45.30
18287;DHT22;9269;50.838;12.094;2023-02-26T16:42:15;4.00;45.50
18287;DHT22;9269;50.838;12.094;2023-02-26T16:44:50;4.20;45.70